createdAt,value
2018-06-11T00:01:30.276Z,9.60
2018-06-11T00:03:58.650Z,10.17
2018-06-11T00:06:27.003Z,9.50
2018-06-11T00:08:55.381Z,10.27
2018-06-11T00:11:23.828Z,10.60
2018-06-11T00:13:52.235Z,10.53
2018-06-11T00:16:20.583Z,10.13
2018-06-11T00:18:48.992Z,9.57
2018-06-11T00:21:17.390Z,10.00
2018-06-11T00:23:45.769Z,10.20
2018-06-11T00:26:14.199Z,9.70
2018-06-11T00:28:42.679Z,10.20
2018-06-11T00:31:11.100Z,9.90
2018-06-11T00:33:39.547Z,10.47
2018-06-11T00:36:08.015Z,10.93
2018-06-11T00:38:36.411Z,9.57
2018-06-11T00:41:04.851Z,10.07
2018-06-11T00:43:33.328Z,10.33
2018-06-11T00:46:01.782Z,10.77
2018-06-11T00:48:30.233Z,10.43
2018-06-11T00:50:58.758Z,11.17
2018-06-11T00:53:27.207Z,10.47
2018-06-11T00:56:07.755Z,10.93
2018-06-11T00:58:36.257Z,10.80
2018-06-11T01:01:05.132Z,11.33
2018-06-11T01:03:39.252Z,10.80
2018-06-11T01:06:08.183Z,10.90
2018-06-11T01:08:36.603Z,11.10
2018-06-11T01:11:05.170Z,10.73
2018-06-11T01:13:33.588Z,10.67
2018-06-11T01:16:02.028Z,11.03
2018-06-11T01:18:30.512Z,11.10
2018-06-11T01:20:58.970Z,11.00
2018-06-11T01:23:27.447Z,12.27
2018-06-11T01:25:56.011Z,11.50
2018-06-11T01:28:24.474Z,11.30
2018-06-11T01:30:52.894Z,12.03
2018-06-11T01:33:21.297Z,11.43
2018-06-11T01:35:49.709Z,12.53
2018-06-11T01:38:18.143Z,11.80
2018-06-11T01:40:46.580Z,11.87
2018-06-11T01:43:15.018Z,12.93
2018-06-11T01:45:43.492Z,13.10
2018-06-11T01:48:12.022Z,12.43
2018-06-11T01:50:40.462Z,12.63
2018-06-11T01:53:08.877Z,12.63
2018-06-11T01:55:37.337Z,12.97
2018-06-11T01:58:05.802Z,12.07
2018-06-11T02:00:34.225Z,12.37
2018-06-11T02:03:02.668Z,12.27
2018-06-11T02:05:31.082Z,11.83
2018-06-11T02:07:59.560Z,13.07
2018-06-11T02:10:28.489Z,12.90
2018-06-11T02:12:56.897Z,12.77
2018-06-11T02:15:25.278Z,12.57
2018-06-11T02:17:53.635Z,12.23
2018-06-11T02:20:22.076Z,11.67
2018-06-11T02:22:50.567Z,12.53
2018-06-11T02:25:18.991Z,13.03
2018-06-11T02:27:47.456Z,12.73
2018-06-11T02:30:15.859Z,11.80
2018-06-11T02:32:44.293Z,12.03
2018-06-11T02:35:12.683Z,12.97
2018-06-11T02:37:41.092Z,12.47
2018-06-11T02:40:09.477Z,12.00
2018-06-11T02:42:37.863Z,12.43
2018-06-11T02:45:06.575Z,12.50
2018-06-11T02:47:34.994Z,12.30
2018-06-11T02:50:03.405Z,14.03
2018-06-11T02:52:31.958Z,14.53
2018-06-11T02:55:00.365Z,13.50
2018-06-11T02:57:28.800Z,13.13
2018-06-11T02:59:57.261Z,13.10
2018-06-11T03:02:25.726Z,12.77
2018-06-11T03:04:54.120Z,12.40
2018-06-11T03:07:22.617Z,12.83
2018-06-11T03:09:51.046Z,12.70
2018-06-11T03:12:19.470Z,12.77
2018-06-11T03:14:47.947Z,13.33
2018-06-11T03:17:16.413Z,12.17
2018-06-11T03:19:44.777Z,12.37
2018-06-11T03:22:13.156Z,13.20
2018-06-11T03:24:41.580Z,12.50
2018-06-11T03:27:10.005Z,13.90
2018-06-11T03:29:38.393Z,12.60
2018-06-11T03:32:06.828Z,12.43
2018-06-11T03:34:35.325Z,12.63
2018-06-11T03:37:03.736Z,12.93
2018-06-11T03:39:32.163Z,12.67
2018-06-11T03:42:00.634Z,13.27
2018-06-11T03:44:29.124Z,13.13
2018-06-11T03:48:26.716Z,13.07
2018-06-11T03:50:55.139Z,13.43
2018-06-11T03:53:23.576Z,12.60
2018-06-11T03:55:52.014Z,13.00
2018-06-11T03:58:20.485Z,12.63
2018-06-11T04:00:48.996Z,12.70
2018-06-11T04:03:17.404Z,13.00
2018-06-11T04:05:45.825Z,13.13
2018-06-11T04:08:14.398Z,13.07
2018-06-11T04:10:42.842Z,13.10
2018-06-11T04:13:11.372Z,12.80
2018-06-11T04:15:40.796Z,13.23
2018-06-11T04:18:09.301Z,12.93
2018-06-11T04:20:37.827Z,13.47
2018-06-11T04:23:06.244Z,13.73
2018-06-11T04:25:34.691Z,14.80
2018-06-11T04:28:03.145Z,14.93
2018-06-11T04:30:32.465Z,14.90
2018-06-11T04:33:00.867Z,13.67
2018-06-11T04:35:29.333Z,14.80
2018-06-11T04:37:57.920Z,14.20
2018-06-11T04:40:26.387Z,16.10
2018-06-11T04:42:54.783Z,17.67
2018-06-11T04:45:23.248Z,17.73
2018-06-11T04:47:51.655Z,20.90
2018-06-11T04:50:20.084Z,18.30
2018-06-11T04:52:48.508Z,16.27
2018-06-11T04:55:16.988Z,17.23
2018-06-11T04:57:45.465Z,15.30
2018-06-11T05:00:13.945Z,18.37
2018-06-11T05:02:42.323Z,18.97
2018-06-11T05:05:10.808Z,16.40
2018-06-11T05:07:39.181Z,15.63
2018-06-11T05:10:07.597Z,14.80
2018-06-11T05:12:36.008Z,20.63
2018-06-11T05:15:04.477Z,21.43
2018-06-11T05:17:32.876Z,15.33
2018-06-11T05:20:01.312Z,15.17
2018-06-11T05:22:29.764Z,13.30
2018-06-11T05:24:58.188Z,13.40
2018-06-11T05:27:26.622Z,15.70
2018-06-11T05:29:54.983Z,15.60
2018-06-11T05:32:23.435Z,15.37
2018-06-11T05:34:51.928Z,15.17
2018-06-11T05:37:20.344Z,16.17
2018-06-11T05:39:48.733Z,16.10
2018-06-11T05:42:17.104Z,16.10
2018-06-11T05:44:45.954Z,16.00
2018-06-11T05:47:14.391Z,15.73
2018-06-11T05:49:42.810Z,15.83
2018-06-11T05:52:11.240Z,15.23
2018-06-11T05:54:39.653Z,15.73
2018-06-11T05:57:08.065Z,16.63
2018-06-11T05:59:36.493Z,17.50
2018-06-11T06:02:04.957Z,16.87
2018-06-11T06:04:33.369Z,17.03
2018-06-11T06:07:01.915Z,17.20
2018-06-11T06:09:30.349Z,16.83
2018-06-11T06:11:58.783Z,18.13
2018-06-11T06:14:27.231Z,17.07
2018-06-11T06:16:55.639Z,17.70
2018-06-11T06:19:24.019Z,18.27
2018-06-11T06:21:52.372Z,18.13
2018-06-11T06:24:20.751Z,16.93
2018-06-11T06:26:49.384Z,17.23
2018-06-11T06:29:17.791Z,18.07
2018-06-11T06:31:46.201Z,18.90
2018-06-11T06:34:14.690Z,17.87
2018-06-11T06:36:43.084Z,17.77
2018-06-11T06:39:12.611Z,17.73
2018-06-11T06:41:41.010Z,17.27
2018-06-11T06:44:09.471Z,16.20
2018-06-11T06:46:37.898Z,16.50
2018-06-11T06:49:06.276Z,17.30
2018-06-11T06:51:34.729Z,17.43
2018-06-11T06:54:03.168Z,16.97
2018-06-11T06:56:31.536Z,16.77
2018-06-11T06:58:59.904Z,16.30
2018-06-11T07:01:28.250Z,14.47
2018-06-11T07:03:56.740Z,14.97
2018-06-11T07:06:25.178Z,15.87
2018-06-11T07:08:53.596Z,14.40
2018-06-11T07:11:21.978Z,13.67
2018-06-11T07:13:50.376Z,14.27
2018-06-11T07:16:18.805Z,13.93
2018-06-11T07:18:47.289Z,13.00
2018-06-11T07:21:15.661Z,12.50
2018-06-11T07:23:44.057Z,14.13
2018-06-11T07:26:12.580Z,13.53
2018-06-11T07:28:41.032Z,13.37
2018-06-11T07:31:09.515Z,14.90
2018-06-11T07:33:37.961Z,13.50
2018-06-11T07:36:06.372Z,13.50
2018-06-11T07:38:34.855Z,12.80
2018-06-11T07:41:03.287Z,13.57
2018-06-11T07:43:31.679Z,12.90
2018-06-11T07:46:00.072Z,12.90
2018-06-11T07:48:28.505Z,13.10
2018-06-11T07:50:56.936Z,13.10
2018-06-11T07:53:25.330Z,12.27
2018-06-11T07:55:53.736Z,11.20
2018-06-11T07:58:22.264Z,11.87
2018-06-11T08:00:50.589Z,11.03
2018-06-11T08:03:18.950Z,11.73
2018-06-11T08:05:47.355Z,11.50
2018-06-11T08:08:15.752Z,11.20
2018-06-11T08:10:44.132Z,12.10
2018-06-11T08:13:12.466Z,12.93
2018-06-11T08:15:40.890Z,9.73
2018-06-11T08:18:09.259Z,10.60
2018-06-11T08:20:37.641Z,10.53
2018-06-11T08:23:06.251Z,10.17
2018-06-11T08:25:34.636Z,9.70
2018-06-11T08:28:03.630Z,9.17
2018-06-11T08:30:31.979Z,10.20
2018-06-11T08:33:00.352Z,9.47
2018-06-11T08:35:28.764Z,9.17
2018-06-11T08:37:57.099Z,9.75
2018-06-11T08:40:25.496Z,8.80
2018-06-11T08:42:53.842Z,9.50
2018-06-11T08:45:22.356Z,9.10
2018-06-11T08:47:50.704Z,9.55
2018-06-11T08:50:19.088Z,9.03
2018-06-11T08:52:47.452Z,9.20
2018-06-11T08:55:15.803Z,9.20
2018-06-11T08:57:44.174Z,8.90
2018-06-11T09:00:12.603Z,9.13
2018-06-11T09:02:40.981Z,8.30
2018-06-11T09:05:09.404Z,8.45
2018-06-11T09:07:37.763Z,8.58
2018-06-11T09:10:06.117Z,8.80
2018-06-11T09:12:34.465Z,8.25
2018-06-11T09:15:03.786Z,9.23
2018-06-11T09:17:32.251Z,8.18
2018-06-11T09:20:00.631Z,8.35
2018-06-11T09:22:29.477Z,8.35
2018-06-11T09:24:57.873Z,7.95
2018-06-11T09:27:26.200Z,7.70
2018-06-11T09:29:54.545Z,7.97
2018-06-11T09:32:22.959Z,7.33
2018-06-11T09:34:51.611Z,7.00
2018-06-11T09:37:19.955Z,6.35
2018-06-11T09:39:48.309Z,6.28
2018-06-11T09:42:16.656Z,6.30
2018-06-11T09:44:45.028Z,5.92
2018-06-11T09:47:13.427Z,6.35
2018-06-11T09:49:41.919Z,5.55
2018-06-11T09:52:10.316Z,5.92
2018-06-11T09:54:38.702Z,6.03
2018-06-11T09:57:07.467Z,5.53
2018-06-11T09:59:35.810Z,5.65
2018-06-11T10:02:04.154Z,4.72
2018-06-11T10:04:32.536Z,5.00
2018-06-11T10:07:00.915Z,4.45
2018-06-11T10:09:29.401Z,4.50
2018-06-11T10:11:57.796Z,4.47
2018-06-11T10:14:26.165Z,4.83
2018-06-11T10:16:54.544Z,4.70
2018-06-11T10:19:22.911Z,4.75
2018-06-11T10:21:51.302Z,4.58
2018-06-11T10:24:19.651Z,4.72
2018-06-11T10:26:48.056Z,4.20
2018-06-11T10:29:16.442Z,4.60
2018-06-11T10:31:44.828Z,4.83
2018-06-11T10:34:13.987Z,4.10
2018-06-11T10:36:42.726Z,3.77
2018-06-11T10:39:11.233Z,3.77
2018-06-11T10:41:39.589Z,3.72
2018-06-11T10:44:07.959Z,3.85
2018-06-11T10:46:36.320Z,4.55
2018-06-11T10:49:04.763Z,3.80
2018-06-11T10:51:33.149Z,3.50
2018-06-11T10:54:01.565Z,3.80
2018-06-11T10:56:29.952Z,3.80
2018-06-11T10:58:58.311Z,3.80
2018-06-11T11:01:26.695Z,3.50
2018-06-11T11:03:55.051Z,4.50
2018-06-11T11:06:23.530Z,4.03
2018-06-11T11:08:52.065Z,3.47
2018-06-11T11:11:20.517Z,3.33
2018-06-11T11:13:48.968Z,3.60
2018-06-11T11:16:17.413Z,4.13
2018-06-11T11:18:45.801Z,4.20
2018-06-11T11:21:14.412Z,3.80
2018-06-11T11:23:43.482Z,3.67
2018-06-11T11:26:12.367Z,3.90
2018-06-11T11:28:40.873Z,3.90
2018-06-11T11:31:09.280Z,3.50
2018-06-11T11:33:37.727Z,3.87
2018-06-11T11:36:06.127Z,3.87
2018-06-11T11:38:34.488Z,4.20
2018-06-11T11:41:02.913Z,4.03
2018-06-11T11:43:31.369Z,3.87
2018-06-11T11:45:59.743Z,4.03
2018-06-11T11:48:28.109Z,3.87
2018-06-11T11:50:56.477Z,3.70
2018-06-11T11:53:24.847Z,4.07
2018-06-11T11:55:53.199Z,3.80
2018-06-11T11:58:21.570Z,3.70
2018-06-11T12:00:49.971Z,3.57
2018-06-11T12:03:18.397Z,3.90
2018-06-11T12:05:46.781Z,3.63
2018-06-11T12:08:15.126Z,3.87
2018-06-11T12:10:43.520Z,3.77
2018-06-11T12:13:11.891Z,3.80
2018-06-11T12:15:40.357Z,3.93
2018-06-11T12:18:08.735Z,3.60
2018-06-11T12:20:37.107Z,3.40
2018-06-11T12:23:05.529Z,3.40
2018-06-11T12:25:33.945Z,3.30
2018-06-11T12:28:02.677Z,3.40
2018-06-11T12:30:31.071Z,3.00
2018-06-11T12:32:59.461Z,3.77
2018-06-11T12:35:27.899Z,3.50
2018-06-11T12:37:56.298Z,3.10
2018-06-11T12:40:24.717Z,3.50
2018-06-11T12:42:53.092Z,3.47
2018-06-11T12:45:21.545Z,3.40
2018-06-11T12:47:49.896Z,3.43
2018-06-11T12:50:18.300Z,3.00
2018-06-11T12:52:46.730Z,3.50
2018-06-11T12:55:15.113Z,3.30
2018-06-11T12:57:43.503Z,2.80
2018-06-11T13:00:11.866Z,3.10
2018-06-11T13:02:40.211Z,3.03
2018-06-11T13:05:08.604Z,3.10
2018-06-11T13:07:36.977Z,3.00
2018-06-11T13:10:05.329Z,2.70
2018-06-11T13:12:33.697Z,3.00
2018-06-11T13:15:02.078Z,3.07
2018-06-11T13:17:30.559Z,3.20
2018-06-11T13:19:59.004Z,2.97
2018-06-11T13:22:27.428Z,3.00
2018-06-11T13:24:55.938Z,2.50
2018-06-11T13:27:24.308Z,2.77
2018-06-11T13:29:52.689Z,2.80
2018-06-11T13:32:21.240Z,3.13
2018-06-11T13:34:49.720Z,2.80
2018-06-11T13:37:18.100Z,2.60
2018-06-11T13:39:46.580Z,3.13
2018-06-11T13:42:15.000Z,2.73
2018-06-11T13:44:43.466Z,2.40
2018-06-11T13:47:11.956Z,2.50
2018-06-11T13:49:40.400Z,2.57
2018-06-11T13:52:08.748Z,2.60
2018-06-11T13:54:37.122Z,2.57
2018-06-11T13:57:05.603Z,2.60
2018-06-11T13:59:33.926Z,2.63
2018-06-11T14:02:02.269Z,2.60
2018-06-11T14:04:30.633Z,2.50
2018-06-11T14:06:59.089Z,2.80
2018-06-11T14:09:27.520Z,2.43
2018-06-11T14:11:55.982Z,3.23
2018-06-11T14:14:24.402Z,2.77
2018-06-11T14:16:52.898Z,2.93
2018-06-11T14:19:21.417Z,2.70
2018-06-11T14:21:49.822Z,2.70
2018-06-11T14:24:18.229Z,3.13
2018-06-11T14:26:46.677Z,3.13
2018-06-11T14:29:15.945Z,2.53
2018-06-11T14:31:44.418Z,2.73
2018-06-11T14:34:12.841Z,2.87
2018-06-11T14:36:41.204Z,2.30
2018-06-11T14:39:09.799Z,2.57
2018-06-11T14:41:38.192Z,2.50
2018-06-11T14:44:06.562Z,2.70
2018-06-11T14:46:35.033Z,2.87
2018-06-11T14:49:03.445Z,2.87
2018-06-11T14:51:31.791Z,2.90
2018-06-11T14:54:00.175Z,2.80
2018-06-11T14:56:28.615Z,2.97
2018-06-11T14:58:56.983Z,2.77
2018-06-11T15:01:25.348Z,2.80
2018-06-11T15:03:53.799Z,2.50
2018-06-11T15:06:22.170Z,2.80
2018-06-11T15:08:50.523Z,3.20
2018-06-11T15:11:18.875Z,2.77
2018-06-11T15:13:47.263Z,3.40
2018-06-11T15:16:15.658Z,2.90
2018-06-11T15:18:44.021Z,2.47
2018-06-11T15:21:12.416Z,2.90
2018-06-11T15:23:40.823Z,2.53
2018-06-11T15:26:09.224Z,2.70
2018-06-11T15:28:37.588Z,3.00
2018-06-11T15:31:05.930Z,3.33
2018-06-11T15:33:34.259Z,2.60
2018-06-11T15:36:02.620Z,3.20
2018-06-11T15:38:30.991Z,2.63
2018-06-11T15:40:59.369Z,2.60
2018-06-11T15:43:27.723Z,2.80
2018-06-11T15:45:56.104Z,2.57
2018-06-11T15:48:24.516Z,2.30
2018-06-11T15:50:53.027Z,2.30
2018-06-11T15:53:22.511Z,2.50
2018-06-11T15:55:50.921Z,2.50
2018-06-11T15:58:19.327Z,2.63
2018-06-11T16:00:47.794Z,2.60
2018-06-11T16:03:16.277Z,2.33
2018-06-11T16:05:44.645Z,5.33
2018-06-11T16:08:13.020Z,4.17
2018-06-11T16:10:41.399Z,4.07
2018-06-11T16:13:09.787Z,2.60
2018-06-11T16:15:38.202Z,2.50
2018-06-11T16:18:06.578Z,2.33
2018-06-11T16:20:34.944Z,2.33
2018-06-11T16:23:03.326Z,2.47
2018-06-11T16:25:31.782Z,2.50
2018-06-11T16:28:00.151Z,2.83
2018-06-11T16:30:28.506Z,2.70
2018-06-11T16:32:56.951Z,2.67
2018-06-11T16:35:25.376Z,2.53
2018-06-11T16:37:53.717Z,2.63
2018-06-11T16:40:22.072Z,3.10
2018-06-11T16:42:50.588Z,2.40
2018-06-11T16:45:18.988Z,2.37
2018-06-11T16:47:47.390Z,2.73
2018-06-11T16:50:15.754Z,2.13
2018-06-11T16:52:44.147Z,2.70
2018-06-11T16:55:12.623Z,3.00
2018-06-11T16:57:41.051Z,3.30
2018-06-11T17:00:09.529Z,2.80
2018-06-11T17:02:38.022Z,2.70
2018-06-11T17:05:06.871Z,2.60
2018-06-11T17:07:35.447Z,2.47
2018-06-11T17:10:03.908Z,2.70
2018-06-11T17:12:32.337Z,2.63
2018-06-11T17:15:00.850Z,2.50
2018-06-11T17:17:29.347Z,2.70
2018-06-11T17:19:57.814Z,3.00
2018-06-11T17:22:26.278Z,3.20
2018-06-11T17:24:54.898Z,3.00
2018-06-11T17:27:23.323Z,2.77
2018-06-11T17:29:51.758Z,2.93
2018-06-11T17:32:20.155Z,2.70
2018-06-11T17:34:48.620Z,2.60
2018-06-11T17:37:17.054Z,2.63
2018-06-11T17:39:45.478Z,3.20
2018-06-11T17:42:13.979Z,3.90
2018-06-11T17:44:42.400Z,3.00
2018-06-11T17:47:10.965Z,3.20
2018-06-11T17:49:39.543Z,4.87
2018-06-11T17:52:08.103Z,4.40
2018-06-11T17:54:36.547Z,3.03
2018-06-11T17:57:05.059Z,3.23
2018-06-11T17:59:33.491Z,3.07
2018-06-11T18:02:01.878Z,2.93
2018-06-11T18:04:30.287Z,3.27
2018-06-11T18:06:58.632Z,3.00
2018-06-11T18:09:27.022Z,3.40
2018-06-11T18:11:55.441Z,3.20
2018-06-11T18:14:23.773Z,3.67
2018-06-11T18:16:52.135Z,3.67
2018-06-11T18:19:20.488Z,3.33
2018-06-11T18:21:48.847Z,3.20
2018-06-11T18:24:17.202Z,4.00
2018-06-11T18:26:45.636Z,5.60
2018-06-11T18:29:14.052Z,3.30
2018-06-11T18:31:42.493Z,3.30
2018-06-11T18:34:10.868Z,3.20
2018-06-11T18:36:39.215Z,3.10
2018-06-11T18:39:08.985Z,2.73
2018-06-11T18:41:37.555Z,2.70
2018-06-11T18:44:06.052Z,2.87
2018-06-11T18:46:34.595Z,2.90
2018-06-11T18:49:03.015Z,2.87
2018-06-11T18:51:31.395Z,2.90
2018-06-11T18:54:00.400Z,2.67
2018-06-11T18:56:28.807Z,2.47
2018-06-11T18:58:57.190Z,2.50
2018-06-11T19:01:25.556Z,2.30
2018-06-11T19:03:53.928Z,2.80
2018-06-11T19:06:22.397Z,2.50
2018-06-11T19:08:50.771Z,5.23
2018-06-11T19:11:19.156Z,7.37
2018-06-11T19:13:47.579Z,2.70
2018-06-11T19:16:15.987Z,2.73
2018-06-11T19:18:44.397Z,2.43
2018-06-11T19:21:12.815Z,2.50
2018-06-11T19:23:41.188Z,2.60
2018-06-11T19:26:09.603Z,2.50
2018-06-11T19:28:45.706Z,2.60
2018-06-11T19:31:18.440Z,2.30
2018-06-11T19:33:48.669Z,2.40
2018-06-11T19:36:17.555Z,3.20
2018-06-11T19:38:51.356Z,2.40
2018-06-11T19:41:19.874Z,2.40
2018-06-11T19:43:48.280Z,2.40
2018-06-11T19:46:23.581Z,2.40
2018-06-11T19:48:59.259Z,2.60
2018-06-11T19:51:34.904Z,2.50
2018-06-11T19:54:07.844Z,2.47
2018-06-11T19:56:38.964Z,2.63
2018-06-11T19:59:07.715Z,2.37
2018-06-11T20:01:39.096Z,2.53
2018-06-11T20:04:11.374Z,2.40
2018-06-11T20:06:47.008Z,4.10
2018-06-11T20:09:16.084Z,4.33
2018-06-11T20:11:50.284Z,3.23
2018-06-11T20:14:18.756Z,2.60
2018-06-11T20:16:47.138Z,2.60
2018-06-11T20:22:02.021Z,2.93
2018-06-11T20:25:06.034Z,3.00
2018-06-11T20:27:33.616Z,3.23
2018-06-11T20:30:02.086Z,9.30
2018-06-11T20:32:31.325Z,4.93
2018-06-11T20:35:00.131Z,3.50
2018-06-11T20:37:28.667Z,2.90
2018-06-11T20:39:57.118Z,2.80
2018-06-11T20:42:25.517Z,3.10
2018-06-11T20:44:54.640Z,3.30
2018-06-11T20:47:23.073Z,3.27
2018-06-11T20:49:51.555Z,3.00
2018-06-11T20:52:20.065Z,3.10
2018-06-11T20:54:48.632Z,9.53
2018-06-11T20:57:17.519Z,4.93
2018-06-11T20:59:46.025Z,3.83
2018-06-11T21:02:14.998Z,4.03
2018-06-11T21:04:43.468Z,3.20
2018-06-11T21:07:12.298Z,3.60
2018-06-11T21:09:40.732Z,3.10
2018-06-11T21:12:09.138Z,3.20
2018-06-11T21:14:38.285Z,3.03
2018-06-11T21:17:06.766Z,3.13
2018-06-11T21:19:35.397Z,3.10
2018-06-11T21:22:04.089Z,3.00
2018-06-11T21:24:32.493Z,3.00
2018-06-11T21:27:00.939Z,2.70
2018-06-11T21:29:29.717Z,2.93
2018-06-11T21:31:58.528Z,3.27
2018-06-11T21:34:26.993Z,2.90
2018-06-11T21:36:55.756Z,3.10
2018-06-11T21:39:24.263Z,3.13
2018-06-11T21:41:53.251Z,3.47
2018-06-11T21:44:21.752Z,3.17
2018-06-11T21:46:50.233Z,3.37
2018-06-11T21:49:18.633Z,2.93
2018-06-11T21:51:47.027Z,3.00
2018-06-11T21:54:17.002Z,3.30
2018-06-11T21:56:53.685Z,3.20
2018-06-11T21:59:23.511Z,3.40
2018-06-11T22:01:53.035Z,3.70
2018-06-11T22:04:21.626Z,3.23
2018-06-11T22:06:50.053Z,3.40
2018-06-11T22:09:18.464Z,3.40
2018-06-11T22:11:48.156Z,3.73
2018-06-11T22:14:21.126Z,3.87
2018-06-11T22:16:50.028Z,3.37
2018-06-11T22:19:18.515Z,3.87
2018-06-11T22:21:46.978Z,3.57
2018-06-11T22:24:15.364Z,3.40
2018-06-11T22:26:44.169Z,3.30
2018-06-11T22:29:12.629Z,3.30
2018-06-11T22:31:41.064Z,3.33
2018-06-11T22:34:09.470Z,3.23
2018-06-11T22:36:37.889Z,3.40
2018-06-11T22:39:07.928Z,3.60
2018-06-11T22:41:36.528Z,3.80
2018-06-11T22:44:05.047Z,3.47
2018-06-11T22:46:33.465Z,3.70
2018-06-11T22:49:01.967Z,3.83
2018-06-11T22:51:30.635Z,3.50
2018-06-11T22:53:59.158Z,3.90
2018-06-11T22:56:27.681Z,3.90
2018-06-11T22:58:56.190Z,3.53
2018-06-11T23:01:24.630Z,3.80
2018-06-11T23:03:53.070Z,3.93
2018-06-11T23:06:21.600Z,4.03
2018-06-11T23:08:50.017Z,3.90
2018-06-11T23:11:18.450Z,3.90
2018-06-11T23:13:46.946Z,4.37
2018-06-11T23:16:15.491Z,3.47
2018-06-11T23:18:44.053Z,4.20
2018-06-11T23:21:12.503Z,3.83
2018-06-11T23:23:41.122Z,3.50
2018-06-11T23:26:09.653Z,4.10
2018-06-11T23:28:38.164Z,4.13
2018-06-11T23:31:06.634Z,3.97
2018-06-11T23:33:35.129Z,4.27
2018-06-11T23:36:03.648Z,4.70
2018-06-11T23:38:32.093Z,4.17
2018-06-11T23:41:00.532Z,5.03
2018-06-11T23:43:28.968Z,4.20
2018-06-11T23:45:57.499Z,4.83
2018-06-11T23:48:25.968Z,4.20
2018-06-11T23:50:54.419Z,4.47
2018-06-11T23:53:22.873Z,4.17
2018-06-11T23:55:51.380Z,4.47
2018-06-11T23:58:19.912Z,4.63
